Time;durP1;ratioP1;P1;durP2;ratioP2;P2;SDS_P1;SDS_P2;PMS_P1;PMS_P2;Temp;Humidity;BMP_temperature;BMP_pressure;BME280_temperature;BME280_humidity;BME280_pressure;Samples;Min_cycle;Max_cycle;Signal;HPM_P1;HPM_P2
2022/11/08 00:01:35;;;;;;;14.25;7.25;;;;;;;;;;5028818;28;20058;-62
2022/11/08 00:04:07;;;;;;;21.67;7.72;;;;;;;;;;4983064;28;20451;-62
2022/11/08 00:14:47;;;;;;;15.57;7.78;;;;;;;;;;5028872;28;20485;-62
2022/11/08 00:17:14;;;;;;;14.27;6.50;;;;;;;;;;5028530;28;20470;-62
2022/11/08 00:19:41;;;;;;;13.70;6.50;;;;;;;;;;4959623;28;20052;-62
2022/11/08 00:22:08;;;;;;;14.68;6.65;;;;;;;;;;5021360;28;20446;-62
2022/11/08 00:24:34;;;;;;;15.93;7.65;;;;;;;;;;5027462;28;20396;-62
2022/11/08 00:27:03;;;;;;;15.48;7.53;;;;;;;;;;5027462;28;20415;-62
2022/11/08 00:29:28;;;;;;;;;;;;;;;;;;5028038;28;20300;-62
2022/11/08 00:31:54;;;;;;;14.20;7.10;;;;;;;;;;5031470;28;20229;-62
2022/11/08 00:34:19;;;;;;;15.38;7.15;;;;;;;;;;5031506;28;20374;-62
2022/11/08 00:36:44;;;;;;;13.65;7.35;;;;;;;;;;5032223;28;20301;-62
2022/11/08 00:39:10;;;;;;;13.45;7.35;;;;;;;;;;5033251;28;20052;-62
2022/11/08 00:41:35;;;;;;;15.75;7.38;;;;;;;;;;5001564;28;20107;-61
2022/11/08 00:44:01;;;;;;;14.30;6.82;;;;;;;;;;5032159;28;20361;-61
2022/11/08 00:46:26;;;;;;;14.00;6.63;;;;;;;;;;5031281;28;20411;-61
2022/11/08 00:48:52;;;;;;;13.73;5.78;;;;;;;;;;5031296;28;20419;-62
2022/11/08 00:51:17;;;;;;;12.07;6.50;;;;;;;;;;5032829;28;20362;-61
2022/11/08 00:53:43;;;;;;;11.88;5.82;;;;;;;;;;5030553;28;20516;-62
2022/11/08 00:56:12;;;;;;;12.93;6.72;;;;;;;;;;5031202;28;20357;-62
2022/11/08 00:58:38;;;;;;;12.13;6.07;;;;;;;;;;5030820;28;20457;-62
2022/11/08 01:01:16;;;;;;;14.80;6.40;;;;;;;;;;5026429;28;20467;-62
2022/11/08 01:03:42;;;;;;;11.70;6.17;;;;;;;;;;4999449;28;20398;-62
2022/11/08 01:06:10;;;;;;;13.35;6.10;;;;;;;;;;4991014;28;20402;-62
2022/11/08 01:08:36;;;;;;;12.23;6.00;;;;;;;;;;4991517;28;20025;-63
2022/11/08 01:11:05;;;;;;;13.93;6.22;;;;;;;;;;4885272;28;20069;-62
2022/11/08 01:13:32;;;;;;;13.93;6.25;;;;;;;;;;4989561;28;20419;-62
2022/11/08 01:15:58;;;;;;;10.40;6.22;;;;;;;;;;4991562;28;20336;-62
2022/11/08 01:18:23;;;;;;;11.15;6.20;;;;;;;;;;4991598;28;20422;-61
2022/11/08 01:20:49;;;;;;;12.10;6.40;;;;;;;;;;4990644;28;20391;-62
2022/11/08 01:23:18;;;;;;;13.93;6.40;;;;;;;;;;4991759;28;20421;-62
2022/11/08 01:25:46;;;;;;;12.55;6.60;;;;;;;;;;4990571;28;20423;-62
2022/11/08 01:28:12;;;;;;;11.82;6.57;;;;;;;;;;4990875;28;20435;-62
2022/11/08 01:30:41;;;;;;;11.63;6.35;;;;;;;;;;4990364;28;20412;-62
2022/11/08 01:33:07;;;;;;;11.80;6.53;;;;;;;;;;4990764;28;20451;-62
2022/11/08 01:35:34;;;;;;;14.82;6.28;;;;;;;;;;4990395;28;20431;-62
2022/11/08 01:38:00;;;;;;;15.27;7.35;;;;;;;;;;4990053;28;20067;-62
2022/11/08 01:40:28;;;;;;;12.40;7.10;;;;;;;;;;4989784;28;20408;-62
2022/11/08 01:42:53;;;;;;;14.13;6.15;;;;;;;;;;4990234;28;20538;-61
2022/11/08 01:46:28;;;;;;;10.23;6.07;;;;;;;;;;4990215;28;20419;-62
2022/11/08 01:49:12;;;;;;;11.80;5.70;;;;;;;;;;4989875;28;20032;-62
2022/11/08 01:51:51;;;;;;;13.07;6.07;;;;;;;;;;4990753;28;20379;-62
2022/11/08 01:54:42;;;;;;;13.77;6.57;;;;;;;;;;4984092;28;20486;-62
2022/11/08 01:57:13;;;;;;;11.75;6.30;;;;;;;;;;4970392;28;20471;-62
2022/11/08 01:59:43;;;;;;;13.05;6.85;;;;;;;;;;4969975;28;20332;-64
2022/11/08 02:02:09;;;;;;;11.60;5.72;;;;;;;;;;4968861;28;20451;-62
2022/11/08 02:04:37;;;;;;;12.57;5.95;;;;;;;;;;4968914;28;20447;-62
2022/11/08 02:07:04;;;;;;;13.80;6.13;;;;;;;;;;4985614;28;20559;-62
2022/11/08 02:09:31;;;;;;;11.20;5.50;;;;;;;;;;4985319;28;20048;-62
2022/11/08 02:11:57;;;;;;;12.63;6.18;;;;;;;;;;4971080;28;20379;-62
2022/11/08 02:14:23;;;;;;;13.40;6.15;;;;;;;;;;4968443;28;20103;-62
2022/11/08 02:16:48;;;;;;;11.48;6.20;;;;;;;;;;4970048;28;20371;-62
2022/11/08 02:19:29;;;;;;;11.98;6.30;;;;;;;;;;4970537;28;20411;-62
2022/11/08 02:22:00;;;;;;;11.80;5.85;;;;;;;;;;4970144;28;20402;-62
2022/11/08 02:24:26;;;;;;;11.75;6.28;;;;;;;;;;4968496;28;20056;-62
2022/11/08 02:26:53;;;;;;;15.63;6.47;;;;;;;;;;4969642;28;20458;-61
2022/11/08 02:29:35;;;;;;;16.83;6.75;;;;;;;;;;4968288;28;20487;-62
2022/11/08 02:32:03;;;;;;;10.95;5.40;;;;;;;;;;4969928;28;20463;-62
2022/11/08 02:34:44;;;;;;;11.30;5.90;;;;;;;;;;4969747;28;20460;-61
2022/11/08 02:37:12;;;;;;;8.68;5.32;;;;;;;;;;4970477;28;20029;-62
2022/11/08 02:39:38;;;;;;;11.43;5.63;;;;;;;;;;4969584;28;20057;-61
2022/11/08 02:42:03;;;;;;;12.55;5.75;;;;;;;;;;4969615;28;20730;-62
2022/11/08 02:44:29;;;;;;;11.00;5.30;;;;;;;;;;4969264;28;20440;-62
2022/11/08 02:46:55;;;;;;;14.02;6.10;;;;;;;;;;4969192;28;20333;-62
2022/11/08 02:49:20;;;;;;;14.77;6.82;;;;;;;;;;4969209;28;20435;-62
2022/11/08 02:51:46;;;;;;;9.90;5.70;;;;;;;;;;4970379;28;20321;-62
2022/11/08 02:54:11;;;;;;;13.18;6.50;;;;;;;;;;4976669;28;20346;-62
2022/11/08 02:56:37;;;;;;;11.27;6.22;;;;;;;;;;4989930;28;20025;-61
2022/11/08 02:59:02;;;;;;;10.98;5.80;;;;;;;;;;4989676;28;20699;-61
2022/11/08 03:01:28;;;;;;;13.07;6.25;;;;;;;;;;4989107;28;20489;-62
2022/11/08 03:03:53;;;;;;;10.10;5.07;;;;;;;;;;4988696;28;20028;-61
2022/11/08 03:06:19;;;;;;;13.35;6.32;;;;;;;;;;4988713;28;20098;-62
2022/11/08 03:08:45;;;;;;;13.32;5.88;;;;;;;;;;4988400;28;20051;-62
2022/11/08 03:11:10;;;;;;;8.63;4.80;;;;;;;;;;4989279;28;20458;-62
2022/11/08 03:13:36;;;;;;;11.25;5.45;;;;;;;;;;4988701;28;20363;-62
2022/11/08 03:16:05;;;;;;;12.57;5.90;;;;;;;;;;4989381;28;20048;-61
2022/11/08 03:18:30;;;;;;;;;;;;;;;;;;4989775;28;20494;-61
2022/11/08 03:20:59;;;;;;;13.13;5.88;;;;;;;;;;4988730;28;20243;-62
2022/11/08 03:23:25;;;;;;;12.10;5.75;;;;;;;;;;4988570;28;20443;-61
2022/11/08 03:25:50;;;;;;;12.50;5.57;;;;;;;;;;4988647;28;20405;-62
2022/11/08 03:28:15;;;;;;;12.48;6.30;;;;;;;;;;4988347;28;20416;-62
2022/11/08 03:30:41;;;;;;;9.43;5.25;;;;;;;;;;4988355;28;20344;-62
2022/11/08 03:33:07;;;;;;;10.25;5.90;;;;;;;;;;4988245;28;20456;-62
2022/11/08 03:35:32;;;;;;;8.77;5.15;;;;;;;;;;4989221;28;20340;-62
2022/11/08 03:37:58;;;;;;;9.27;5.22;;;;;;;;;;4987888;28;20052;-61
2022/11/08 03:40:24;;;;;;;10.63;5.30;;;;;;;;;;4988161;28;20033;-62
2022/11/08 03:42:50;;;;;;;14.32;5.80;;;;;;;;;;4988282;28;20382;-61
2022/11/08 03:45:16;;;;;;;10.93;5.18;;;;;;;;;;4988548;28;20079;-63
2022/11/08 03:47:45;;;;;;;9.50;5.22;;;;;;;;;;4988412;28;20514;-62
2022/11/08 03:50:13;;;;;;;11.48;5.57;;;;;;;;;;4988353;28;20577;-61
2022/11/08 03:52:44;;;;;;;12.20;5.38;;;;;;;;;;4988011;28;20029;-62
2022/11/08 03:55:10;;;;;;;12.80;6.20;;;;;;;;;;4989213;28;20440;-61
2022/11/08 03:57:37;;;;;;;10.52;5.50;;;;;;;;;;4988240;28;20416;-61
2022/11/08 04:00:05;;;;;;;11.82;5.50;;;;;;;;;;4988062;28;20447;-61
2022/11/08 04:02:30;;;;;;;10.65;5.85;;;;;;;;;;4987901;28;20029;-62
2022/11/08 04:04:56;;;;;;;12.07;5.72;;;;;;;;;;4989137;28;20052;-62
2022/11/08 04:07:21;;;;;;;7.10;4.50;;;;;;;;;;4991792;28;20029;-61
2022/11/08 04:09:47;;;;;;;10.55;5.65;;;;;;;;;;4992292;28;20427;-61
2022/11/08 04:15:14;;;;;;;11.45;5.50;;;;;;;;;;4992920;28;20144;-61
2022/11/08 04:23:15;;;;;;;10.07;6.18;;;;;;;;;;4992723;28;20509;-61
2022/11/08 04:25:42;;;;;;;9.85;5.18;;;;;;;;;;4991889;28;20355;-62
2022/11/08 04:28:08;;;;;;;9.80;4.95;;;;;;;;;;4992933;28;20055;-61
2022/11/08 04:30:33;;;;;;;10.18;5.00;;;;;;;;;;4991688;28;20033;-62
2022/11/08 04:33:00;;;;;;;9.18;5.10;;;;;;;;;;4992618;28;20375;-62
2022/11/08 04:35:27;;;;;;;10.63;6.13;;;;;;;;;;4973636;28;20502;-61
2022/11/08 04:38:02;;;;;;;11.75;5.47;;;;;;;;;;4991622;28;20485;-61
2022/11/08 04:40:29;;;;;;;11.45;5.60;;;;;;;;;;4991230;28;20021;-61
2022/11/08 04:42:55;;;;;;;9.07;4.78;;;;;;;;;;4991089;28;20033;-61
2022/11/08 04:45:20;;;;;;;9.93;5.05;;;;;;;;;;4991353;28;20549;-61
2022/11/08 04:47:47;;;;;;;13.15;5.68;;;;;;;;;;4991730;28;20323;-62
2022/11/08 04:50:13;;;;;;;10.93;5.53;;;;;;;;;;4993044;28;20480;-61
2022/11/08 04:52:40;;;;;;;8.70;4.90;;;;;;;;;;4991351;28;20447;-61
2022/11/08 04:55:06;;;;;;;11.43;5.38;;;;;;;;;;4991132;28;20486;-61
2022/11/08 04:57:32;;;;;;;8.95;4.50;;;;;;;;;;4991343;28;20398;-61
2022/11/08 04:59:57;;;;;;;8.40;5.00;;;;;;;;;;4993478;28;20446;-61
2022/11/08 05:02:23;;;;;;;9.10;4.70;;;;;;;;;;4991482;28;20462;-61
2022/11/08 05:04:48;;;;;;;11.05;5.00;;;;;;;;;;4991252;28;20354;-61
2022/11/08 05:07:14;;;;;;;11.20;5.78;;;;;;;;;;4988953;28;20498;-61
2022/11/08 05:09:39;;;;;;;10.68;5.30;;;;;;;;;;4991159;28;20051;-61
2022/11/08 05:12:05;;;;;;;8.25;4.28;;;;;;;;;;4991422;28;20340;-61
2022/11/08 05:14:30;;;;;;;11.95;5.47;;;;;;;;;;4990813;28;20048;-62
2022/11/08 05:16:56;;;;;;;9.13;4.65;;;;;;;;;;4990687;28;20578;-62
2022/11/08 05:24:52;;;;;;;9.52;5.22;;;;;;;;;;4989646;28;20351;-63
2022/11/08 05:27:17;;;;;;;8.27;5.40;;;;;;;;;;4990832;28;20088;-61
2022/11/08 05:29:43;;;;;;;14.68;5.45;;;;;;;;;;4990520;28;20029;-61
2022/11/08 05:32:08;;;;;;;8.48;4.65;;;;;;;;;;4990624;28;20384;-61
2022/11/08 05:34:34;;;;;;;10.13;5.47;;;;;;;;;;4991384;28;20589;-61
2022/11/08 05:36:59;;;;;;;13.90;5.43;;;;;;;;;;4990449;28;20447;-62
2022/11/08 05:39:25;;;;;;;10.30;5.45;;;;;;;;;;4990288;28;20024;-62
2022/11/08 05:41:50;;;;;;;11.55;5.47;;;;;;;;;;4990561;28;20033;-61
2022/11/08 05:44:16;;;;;;;10.18;5.20;;;;;;;;;;4990711;28;20296;-61
2022/11/08 05:46:41;;;;;;;11.13;5.05;;;;;;;;;;4990933;28;20438;-61
2022/11/08 05:49:07;;;;;;;10.82;5.25;;;;;;;;;;4990333;28;20121;-61
2022/11/08 05:51:32;;;;;;;8.68;5.07;;;;;;;;;;4991817;28;20438;-62
2022/11/08 05:53:58;;;;;;;9.27;4.95;;;;;;;;;;4989839;28;20536;-61
2022/11/08 05:56:23;;;;;;;11.82;4.90;;;;;;;;;;4990517;28;20440;-61
2022/11/08 05:58:49;;;;;;;11.15;5.20;;;;;;;;;;4989942;28;20447;-61
2022/11/08 06:01:19;;;;;;;9.40;4.82;;;;;;;;;;4991601;28;20354;-61
2022/11/08 06:03:46;;;;;;;10.50;5.18;;;;;;;;;;4988383;28;20395;-62
2022/11/08 06:06:17;;;;;;;9.45;5.10;;;;;;;;;;4989809;28;20029;-61
2022/11/08 06:08:43;;;;;;;13.73;5.88;;;;;;;;;;4989765;28;20386;-61
2022/11/08 06:11:14;;;;;;;10.98;5.72;;;;;;;;;;4990014;28;20391;-62
2022/11/08 06:13:40;;;;;;;11.07;5.28;;;;;;;;;;4989584;28;20431;-62
2022/11/08 06:16:11;;;;;;;9.15;5.15;;;;;;;;;;4990331;28;20351;-61
2022/11/08 06:18:38;;;;;;;10.68;5.55;;;;;;;;;;4989260;28;20348;-61
2022/11/08 06:21:06;;;;;;;13.48;6.20;;;;;;;;;;4998198;28;20089;-61
2022/11/08 06:23:32;;;;;;;9.87;5.63;;;;;;;;;;5028479;28;20354;-61
2022/11/08 06:25:59;;;;;;;12.00;5.53;;;;;;;;;;5028163;28;20415;-61
2022/11/08 06:28:25;;;;;;;13.77;5.38;;;;;;;;;;5029288;28;20069;-61
2022/11/08 06:30:50;;;;;;;14.77;5.63;;;;;;;;;;5029213;28;20544;-61
2022/11/08 06:33:16;;;;;;;9.38;5.38;;;;;;;;;;5029282;28;20449;-61
2022/11/08 06:35:42;;;;;;;8.82;4.55;;;;;;;;;;5029552;28;20550;-61
2022/11/08 06:38:07;;;;;;;13.00;5.90;;;;;;;;;;5030183;28;20343;-62
2022/11/08 06:40:33;;;;;;;13.18;5.95;;;;;;;;;;5029915;28;20058;-61
2022/11/08 06:42:59;;;;;;;13.38;5.70;;;;;;;;;;5029280;28;20384;-62
2022/11/08 06:45:26;;;;;;;12.85;5.85;;;;;;;;;;5029110;28;20028;-62
2022/11/08 06:48:02;;;;;;;11.32;5.15;;;;;;;;;;5029122;28;20447;-61
2022/11/08 06:50:29;;;;;;;12.23;5.65;;;;;;;;;;5029016;28;20437;-61
2022/11/08 06:53:01;;;;;;;11.85;5.47;;;;;;;;;;5028570;28;20036;-62
2022/11/08 06:55:27;;;;;;;12.02;6.25;;;;;;;;;;5027682;28;20426;-62
2022/11/08 06:57:53;;;;;;;11.98;5.68;;;;;;;;;;5028259;28;20326;-62
2022/11/08 07:00:19;;;;;;;13.57;5.45;;;;;;;;;;5028284;28;20446;-62
2022/11/08 07:02:45;;;;;;;12.93;5.15;;;;;;;;;;5028470;28;20348;-61
2022/11/08 07:05:11;;;;;;;10.55;5.70;;;;;;;;;;5028091;28;20418;-62
2022/11/08 07:07:37;;;;;;;9.00;4.75;;;;;;;;;;5029205;28;20028;-62
2022/11/08 07:10:04;;;;;;;10.40;5.47;;;;;;;;;;5028277;28;20327;-62
2022/11/08 07:12:30;;;;;;;9.85;5.15;;;;;;;;;;5030085;28;20524;-62
2022/11/08 07:14:56;;;;;;;11.82;5.28;;;;;;;;;;5028463;28;20514;-62
2022/11/08 07:17:21;;;;;;;8.73;4.65;;;;;;;;;;5028557;28;20358;-61
2022/11/08 07:19:47;;;;;;;11.43;5.20;;;;;;;;;;5030234;28;20362;-61
2022/11/08 07:22:12;;;;;;;9.45;4.93;;;;;;;;;;5014605;28;20056;-62
2022/11/08 07:24:38;;;;;;;11.07;5.45;;;;;;;;;;5005456;28;20032;-62
2022/11/08 07:27:03;;;;;;;10.50;4.90;;;;;;;;;;4930570;28;20053;-62
2022/11/08 07:29:28;;;;;;;12.73;5.28;;;;;;;;;;4899053;28;20511;-62
2022/11/08 07:31:54;;;;;;;10.75;4.95;;;;;;;;;;5005359;28;20447;-62
2022/11/08 07:34:19;;;;;;;10.90;5.18;;;;;;;;;;5007842;28;20082;-62
2022/11/08 07:36:45;;;;;;;9.73;5.32;;;;;;;;;;4945758;28;20088;-62
2022/11/08 07:39:11;;;;;;;11.20;4.75;;;;;;;;;;4876221;28;20352;-62
2022/11/08 07:41:36;;;;;;;10.07;5.03;;;;;;;;;;4994900;28;20458;-62
2022/11/08 07:44:02;;;;;;;9.35;4.63;;;;;;;;;;5008140;28;20064;-62
2022/11/08 07:46:27;;;;;;;9.88;4.90;;;;;;;;;;5008426;28;20431;-62
2022/11/08 07:48:52;;;;;;;7.07;4.22;;;;;;;;;;5008022;28;20347;-62
2022/11/08 07:51:18;;;;;;;8.07;5.00;;;;;;;;;;5008152;28;20320;-63
2022/11/08 07:53:43;;;;;;;10.45;4.25;;;;;;;;;;5008193;28;20497;-62
2022/11/08 07:56:09;;;;;;;7.75;4.13;;;;;;;;;;5008288;28;20037;-62
2022/11/08 07:58:35;;;;;;;10.80;5.03;;;;;;;;;;5007897;28;20438;-62
2022/11/08 08:01:02;;;;;;;9.85;4.70;;;;;;;;;;5008785;28;20484;-61
2022/11/08 08:03:27;;;;;;;14.52;4.80;;;;;;;;;;5007874;28;20112;-62
2022/11/08 08:05:53;;;;;;;8.15;4.20;;;;;;;;;;5007474;28;20032;-62
2022/11/08 08:08:19;;;;;;;11.23;4.78;;;;;;;;;;5008217;28;20454;-62
2022/11/08 08:10:45;;;;;;;10.77;5.13;;;;;;;;;;5008155;28;20028;-62
2022/11/08 08:13:11;;;;;;;8.68;4.47;;;;;;;;;;5007533;28;20105;-62
2022/11/08 08:15:37;;;;;;;11.38;4.30;;;;;;;;;;5009038;28;20131;-62
2022/11/08 08:18:05;;;;;;;8.07;4.00;;;;;;;;;;5007544;28;20025;-62
2022/11/08 08:20:31;;;;;;;9.70;4.20;;;;;;;;;;4932148;28;20394;-62
2022/11/08 08:22:58;;;;;;;8.68;4.50;;;;;;;;;;5005453;28;20025;-62
2022/11/08 08:25:25;;;;;;;8.65;4.32;;;;;;;;;;5008681;28;20366;-62
2022/11/08 08:27:56;;;;;;;8.82;4.03;;;;;;;;;;5007643;28;20351;-63
2022/11/08 08:30:23;;;;;;;7.57;3.97;;;;;;;;;;5007732;28;20327;-63
2022/11/08 08:32:49;;;;;;;7.90;4.03;;;;;;;;;;5007827;28;20323;-62
2022/11/08 08:35:15;;;;;;;10.40;4.43;;;;;;;;;;4980965;28;20410;-62
2022/11/08 08:37:40;;;;;;;8.35;3.92;;;;;;;;;;5007638;28;20063;-62
2022/11/08 08:40:09;;;;;;;10.98;4.65;;;;;;;;;;5009247;28;20458;-62
2022/11/08 08:42:35;;;;;;;10.07;3.70;;;;;;;;;;4938583;28;20479;-62
2022/11/08 08:45:00;;;;;;;6.15;3.67;;;;;;;;;;4949831;28;20697;-63
2022/11/08 08:47:27;;;;;;;8.55;4.07;;;;;;;;;;5007656;28;20357;-63
2022/11/08 08:49:52;;;;;;;7.85;4.53;;;;;;;;;;5008093;28;20503;-62
2022/11/08 08:52:17;;;;;;;7.47;4.00;;;;;;;;;;5010709;28;20523;-62
2022/11/08 08:54:43;;;;;;;6.88;3.88;;;;;;;;;;5010670;28;20507;-63
2022/11/08 08:57:08;;;;;;;8.80;4.03;;;;;;;;;;5011392;28;20428;-63
2022/11/08 08:59:34;;;;;;;6.68;3.42;;;;;;;;;;4892942;28;20460;-62
2022/11/08 09:01:59;;;;;;;7.47;3.30;;;;;;;;;;4998360;28;20320;-63
2022/11/08 09:04:27;;;;;;;6.03;3.65;;;;;;;;;;5010691;28;20356;-62
2022/11/08 09:06:53;;;;;;;8.75;4.18;;;;;;;;;;5011619;28;20518;-62
2022/11/08 09:09:19;;;;;;;7.47;3.67;;;;;;;;;;5012587;28;20115;-63
2022/11/08 09:11:44;;;;;;;7.85;3.38;;;;;;;;;;5011425;28;20348;-62
2022/11/08 09:14:09;;;;;;;6.32;3.35;;;;;;;;;;5010624;28;20576;-63
2022/11/08 09:16:35;;;;;;;7.32;3.50;;;;;;;;;;5010603;28;20427;-62
2022/11/08 09:19:00;;;;;;;7.15;3.03;;;;;;;;;;5010578;28;20363;-62
2022/11/08 09:21:26;;;;;;;9.07;3.75;;;;;;;;;;5011873;28;20147;-63
2022/11/08 09:23:51;;;;;;;9.25;3.40;;;;;;;;;;4931540;28;20127;-62
2022/11/08 09:26:17;;;;;;;5.18;3.05;;;;;;;;;;5011460;28;20355;-62
2022/11/08 09:28:42;;;;;;;9.13;3.60;;;;;;;;;;5010668;28;20359;-62
2022/11/08 09:31:11;;;;;;;5.38;3.25;;;;;;;;;;4956343;28;20479;-62
2022/11/08 09:33:38;;;;;;;7.85;3.78;;;;;;;;;;5010525;28;20427;-62
2022/11/08 09:36:05;;;;;;;8.27;3.22;;;;;;;;;;5010832;28;20315;-63
2022/11/08 09:38:31;;;;;;;7.28;3.35;;;;;;;;;;5010127;28;20415;-62
2022/11/08 09:41:28;;;;;;;8.25;3.40;;;;;;;;;;4973962;28;20463;-62
2022/11/08 09:44:16;;;;;;;5.88;3.00;;;;;;;;;;4991874;28;20032;-62
2022/11/08 09:47:01;;;;;;;4.25;2.47;;;;;;;;;;5010197;28;20496;-62
2022/11/08 09:49:32;;;;;;;8.60;3.65;;;;;;;;;;5010224;28;20454;-63
2022/11/08 09:51:59;;;;;;;6.43;3.35;;;;;;;;;;5009771;28;20449;-63
2022/11/08 09:54:37;;;;;;;5.95;2.58;;;;;;;;;;5009529;28;20362;-62
2022/11/08 09:57:05;;;;;;;7.57;3.20;;;;;;;;;;4976058;28;20355;-62
2022/11/08 09:59:48;;;;;;;7.28;3.17;;;;;;;;;;4907934;28;20474;-62
2022/11/08 10:02:23;;;;;;;5.93;2.85;;;;;;;;;;5009183;28;20434;-62
2022/11/08 10:05:16;;;;;;;6.50;3.17;;;;;;;;;;4992146;28;20358;-63
2022/11/08 10:08:16;;;;;;;7.38;2.88;;;;;;;;;;4927496;28;20442;-62
2022/11/08 10:10:59;;;;;;;5.97;2.78;;;;;;;;;;5009694;28;20032;-64
2022/11/08 10:13:53;;;;;;;4.95;2.60;;;;;;;;;;4930706;28;20429;-62
2022/11/08 10:16:34;;;;;;;5.05;2.35;;;;;;;;;;4887910;28;20421;-63
2022/11/08 10:19:07;;;;;;;5.40;2.95;;;;;;;;;;5010078;28;20335;-63
2022/11/08 10:21:50;;;;;;;5.85;2.85;;;;;;;;;;5010080;28;20277;-63
2022/11/08 10:24:45;;;;;;;4.03;2.47;;;;;;;;;;5008538;28;20324;-62
2022/11/08 10:27:27;;;;;;;5.15;2.70;;;;;;;;;;4992292;28;20361;-62
2022/11/08 10:29:59;;;;;;;5.10;2.45;;;;;;;;;;4990798;28;20028;-63
2022/11/08 10:32:24;;;;;;;5.15;2.25;;;;;;;;;;5009305;28;20111;-62
2022/11/08 10:35:19;;;;;;;6.75;2.88;;;;;;;;;;5009267;28;20059;-62
2022/11/08 10:37:48;;;;;;;6.63;2.65;;;;;;;;;;5009624;28;20443;-63
2022/11/08 10:40:23;;;;;;;5.68;2.38;;;;;;;;;;5009269;28;20111;-63
2022/11/08 10:43:10;;;;;;;5.90;2.67;;;;;;;;;;5011714;28;20324;-63
2022/11/08 10:45:36;;;;;;;5.30;2.63;;;;;;;;;;5009018;28;20458;-63
2022/11/08 10:48:03;;;;;;;4.32;2.65;;;;;;;;;;5008346;28;20443;-62
2022/11/08 10:50:50;;;;;;;7.50;2.45;;;;;;;;;;5009102;28;20028;-63
2022/11/08 10:53:31;;;;;;;5.63;2.67;;;;;;;;;;5008586;28;20347;-63
2022/11/08 10:56:06;;;;;;;3.90;1.70;;;;;;;;;;5008730;28;20414;-62
2022/11/08 10:58:38;;;;;;;4.47;2.00;;;;;;;;;;5009229;28;20329;-63
2022/11/08 11:01:25;;;;;;;3.65;2.22;;;;;;;;;;5008524;28;20390;-62
2022/11/08 11:03:52;;;;;;;4.60;1.90;;;;;;;;;;5008413;28;20412;-63
2022/11/08 11:06:31;;;;;;;6.53;2.05;;;;;;;;;;4990720;28;20354;-63
2022/11/08 11:09:17;;;;;;;4.82;2.22;;;;;;;;;;4991112;28;20380;-63
2022/11/08 11:11:44;;;;;;;5.05;2.22;;;;;;;;;;5008776;28;20442;-62
2022/11/08 11:14:20;;;;;;;6.35;2.40;;;;;;;;;;5007867;28;20448;-63
2022/11/08 11:16:59;;;;;;;4.70;2.22;;;;;;;;;;5009612;28;20443;-64
2022/11/08 11:19:26;;;;;;;3.30;2.08;;;;;;;;;;4990779;28;20050;-62
2022/11/08 11:22:32;;;;;;;4.18;2.00;;;;;;;;;;5008373;28;20161;-63
2022/11/08 11:25:17;;;;;;;4.00;1.92;;;;;;;;;;5007042;28;20519;-63
2022/11/08 11:27:47;;;;;;;4.47;2.10;;;;;;;;;;5008437;28;20385;-63
2022/11/08 11:30:24;;;;;;;3.17;1.70;;;;;;;;;;4991964;28;20293;-63
2022/11/08 11:32:59;;;;;;;4.57;2.30;;;;;;;;;;4927439;28;20383;-63
2022/11/08 11:35:33;;;;;;;3.50;1.92;;;;;;;;;;5009760;28;20462;-63
2022/11/08 11:38:01;;;;;;;3.90;2.05;;;;;;;;;;4990689;28;20032;-62
2022/11/08 11:40:43;;;;;;;4.13;2.28;;;;;;;;;;4990746;28;20446;-63
2022/11/08 11:43:21;;;;;;;2.35;1.35;;;;;;;;;;4990739;28;20427;-63
2022/11/08 11:46:04;;;;;;;3.95;1.98;;;;;;;;;;4990868;28;20485;-63
2022/11/08 11:48:38;;;;;;;5.75;1.80;;;;;;;;;;4991094;28;20481;-64
2022/11/08 11:51:04;;;;;;;2.53;1.50;;;;;;;;;;5008178;28;20467;-63
2022/11/08 11:53:32;;;;;;;3.25;1.63;;;;;;;;;;5008907;28;20439;-65
2022/11/08 11:56:41;;;;;;;2.28;1.63;;;;;;;;;;5007725;28;20407;-63
2022/11/08 11:59:26;;;;;;;5.05;1.80;;;;;;;;;;4926930;28;20393;-63
2022/11/08 12:02:22;;;;;;;2.30;1.40;;;;;;;;;;4927005;28;20034;-63
2022/11/08 12:04:47;;;;;;;2.45;1.35;;;;;;;;;;4993977;28;20385;-63
2022/11/08 12:07:32;;;;;;;3.75;2.08;;;;;;;;;;5008854;28;20360;-63
2022/11/08 12:10:20;;;;;;;2.65;1.42;;;;;;;;;;5008323;28;20435;-63
2022/11/08 12:13:07;;;;;;;;;;;;;;;;;;5008701;28;20514;-63
2022/11/08 12:16:29;;;;;;;7.60;1.50;;;;;;;;;;5007642;28;20441;-63
2022/11/08 12:19:00;;;;;;;3.38;1.38;;;;;;;;;;4992707;28;20052;-63
2022/11/08 12:21:50;;;;;;;3.28;1.70;;;;;;;;;;4872556;28;20352;-63
2022/11/08 12:24:40;;;;;;;2.17;1.30;;;;;;;;;;4990428;28;20029;-63
2022/11/08 12:28:03;;;;;;;2.03;1.33;;;;;;;;;;5010222;28;20434;-63
2022/11/08 12:30:49;;;;;;;2.22;1.20;;;;;;;;;;5012357;28;20365;-64
2022/11/08 12:33:48;;;;;;;3.20;1.40;;;;;;;;;;5011122;28;20399;-64
2022/11/08 12:36:29;;;;;;;2.50;1.38;;;;;;;;;;4995247;28;20346;-63
2022/11/08 12:39:25;;;;;;;4.88;1.58;;;;;;;;;;5011335;28;20036;-63
2022/11/08 12:42:05;;;;;;;2.40;1.23;;;;;;;;;;5011233;28;20312;-63
2022/11/08 12:44:56;;;;;;;2.97;1.50;;;;;;;;;;5012410;28;20408;-63
2022/11/08 12:47:43;;;;;;;2.63;1.40;;;;;;;;;;5011278;28;20324;-64
2022/11/08 12:50:14;;;;;;;2.63;1.35;;;;;;;;;;4944503;28;20040;-64
2022/11/08 12:52:54;;;;;;;3.38;1.15;;;;;;;;;;4994807;28;20036;-63
2022/11/08 12:55:36;;;;;;;2.72;1.42;;;;;;;;;;4992517;28;20359;-63
2022/11/08 12:58:20;;;;;;;2.60;1.52;;;;;;;;;;4993909;28;20309;-63
2022/11/08 13:00:49;;;;;;;3.33;1.65;;;;;;;;;;4994327;28;20467;-63
2022/11/08 13:03:27;;;;;;;2.85;1.40;;;;;;;;;;5011038;28;20082;-63
2022/11/08 13:06:35;;;;;;;6.45;2.25;;;;;;;;;;5010726;28;20505;-64
2022/11/08 13:09:28;;;;;;;3.60;1.63;;;;;;;;;;5010819;28;20330;-63
2022/11/08 13:12:11;;;;;;;2.13;1.15;;;;;;;;;;5010968;28;20340;-63
2022/11/08 13:14:38;;;;;;;2.38;0.98;;;;;;;;;;5010475;28;20505;-64
2022/11/08 13:17:21;;;;;;;2.67;1.50;;;;;;;;;;4992476;28;20370;-63
2022/11/08 13:19:47;;;;;;;2.60;1.27;;;;;;;;;;5010273;28;20032;-63
2022/11/08 13:22:28;;;;;;;1.90;1.33;;;;;;;;;;5011225;28;20408;-63
2022/11/08 13:25:01;;;;;;;3.97;1.42;;;;;;;;;;5010126;28;20097;-63
2022/11/08 13:27:31;;;;;;;4.00;1.40;;;;;;;;;;5010856;28;20300;-63
2022/11/08 13:30:14;;;;;;;1.60;1.08;;;;;;;;;;5010140;28;20461;-63
2022/11/08 13:32:50;;;;;;;1.92;1.25;;;;;;;;;;4949475;28;20469;-63
2022/11/08 13:35:37;;;;;;;2.33;1.20;;;;;;;;;;4942499;28;20067;-63
2022/11/08 13:38:40;;;;;;;4.03;1.23;;;;;;;;;;5010794;28;20095;-63
2022/11/08 13:41:15;;;;;;;3.83;2.40;;;;;;;;;;5009850;28;20343;-63
2022/11/08 13:43:40;;;;;;;2.67;1.15;;;;;;;;;;5009851;28;20462;-62
2022/11/08 13:46:28;;;;;;;1.42;1.02;;;;;;;;;;5010293;28;20518;-63
2022/11/08 13:48:56;;;;;;;5.18;1.60;;;;;;;;;;5009822;28;20036;-63
2022/11/08 13:51:27;;;;;;;2.67;1.30;;;;;;;;;;5009712;28;20390;-63
2022/11/08 13:54:13;;;;;;;2.47;1.30;;;;;;;;;;4929684;28;20337;-63
2022/11/08 13:56:53;;;;;;;3.15;1.48;;;;;;;;;;4987599;28;20309;-64
2022/11/08 13:59:30;;;;;;;1.63;1.10;;;;;;;;;;4988691;28;20359;-63
2022/11/08 14:02:11;;;;;;;3.03;1.27;;;;;;;;;;4989643;28;20390;-63
2022/11/08 14:04:39;;;;;;;4.28;1.58;;;;;;;;;;4989743;28;20432;-63
2022/11/08 14:07:38;;;;;;;1.85;1.20;;;;;;;;;;4990981;28;20348;-63
2022/11/08 14:10:44;;;;;;;2.90;1.30;;;;;;;;;;4988950;28;20101;-63
2022/11/08 14:13:23;;;;;;;4.75;1.95;;;;;;;;;;4986791;28;20103;-64
2022/11/08 14:15:58;;;;;;;3.08;1.20;;;;;;;;;;4991047;28;20366;-63
2022/11/08 14:18:37;;;;;;;1.85;1.10;;;;;;;;;;4988140;28;20025;-63
2022/11/08 14:21:04;;;;;;;2.22;1.40;;;;;;;;;;4989457;28;20348;-63
2022/11/08 14:23:39;;;;;;;2.35;1.33;;;;;;;;;;4989690;28;20441;-63
2022/11/08 14:26:10;;;;;;;2.92;1.50;;;;;;;;;;4961608;28;20060;-64
2022/11/08 14:28:47;;;;;;;3.15;1.50;;;;;;;;;;4988165;28;20140;-63
2022/11/08 14:31:32;;;;;;;3.20;1.60;;;;;;;;;;4989527;28;20331;-63
2022/11/08 14:34:00;;;;;;;1.58;1.10;;;;;;;;;;4989226;28;20324;-63
2022/11/08 14:36:29;;;;;;;3.63;1.40;;;;;;;;;;4989965;28;20405;-64
2022/11/08 14:39:04;;;;;;;;;;;;;;;;;;4988618;28;20383;-63
2022/11/08 14:41:32;;;;;;;3.60;1.58;;;;;;;;;;4989076;28;20205;-63
2022/11/08 14:44:00;;;;;;;1.43;1.10;;;;;;;;;;4958508;28;20041;-63
2022/11/08 14:46:38;;;;;;;2.10;1.37;;;;;;;;;;4989217;28;20768;-63
2022/11/08 14:49:12;;;;;;;3.42;1.52;;;;;;;;;;4987255;28;20307;-63
2022/11/08 14:51:39;;;;;;;1.48;1.02;;;;;;;;;;4989606;28;20037;-63
2022/11/08 14:54:21;;;;;;;1.98;1.27;;;;;;;;;;4993430;28;20056;-63
2022/11/08 14:56:49;;;;;;;2.08;0.85;;;;;;;;;;5009336;28;20385;-63
2022/11/08 14:59:14;;;;;;;2.25;1.30;;;;;;;;;;5008548;28;20435;-63
2022/11/08 15:01:44;;;;;;;2.45;1.30;;;;;;;;;;4990551;28;20325;-63
2022/11/08 15:04:18;;;;;;;1.95;1.27;;;;;;;;;;5008906;28;20029;-63
2022/11/08 15:06:53;;;;;;;2.75;1.50;;;;;;;;;;5009191;28;20529;-63
2022/11/08 15:09:28;;;;;;;3.47;1.77;;;;;;;;;;4991151;28;20354;-63
2022/11/08 15:12:04;;;;;;;3.08;1.45;;;;;;;;;;4990686;28;20327;-63
2022/11/08 15:14:34;;;;;;;2.58;1.60;;;;;;;;;;5008229;28;20514;-63
2022/11/08 15:17:00;;;;;;;3.13;1.90;;;;;;;;;;4964966;28;20440;-62
2022/11/08 15:19:41;;;;;;;4.82;2.00;;;;;;;;;;4990154;28;20327;-63
2022/11/08 15:22:32;;;;;;;4.93;1.80;;;;;;;;;;4907985;28;20502;-63
2022/11/08 15:25:13;;;;;;;4.78;1.80;;;;;;;;;;5006680;28;20484;-63
2022/11/08 15:27:53;;;;;;;2.33;1.50;;;;;;;;;;5009546;28;20374;-63